sensor_id;sensor_type;location;lat;lon;timestamp;pressure;altitude;pressure_sealevel;temperature;humidity
84904;BME280;75168;52.096;5.214;2024-02-26T00:01:42;100052.94;;;9.82;56.20
84904;BME280;75168;52.096;5.214;2024-02-26T00:04:09;100050.34;;;9.81;56.10
84904;BME280;75168;52.096;5.214;2024-02-26T00:06:34;100046.84;;;9.83;56.03
84904;BME280;75168;52.096;5.214;2024-02-26T00:09:00;100048.59;;;9.83;55.99
84904;BME280;75168;52.096;5.214;2024-02-26T00:11:27;100054.66;;;9.82;55.89
84904;BME280;75168;52.096;5.214;2024-02-26T00:13:53;100050.34;;;9.81;55.99
84904;BME280;75168;52.096;5.214;2024-02-26T00:16:18;100051.19;;;9.80;55.90
84904;BME280;75168;52.096;5.214;2024-02-26T00:18:44;100052.91;;;9.78;55.97
84904;BME280;75168;52.096;5.214;2024-02-26T00:21:09;100058.97;;;9.77;56.00
84904;BME280;75168;52.096;5.214;2024-02-26T00:23:35;100059.00;;;9.75;55.92
84904;BME280;75168;52.096;5.214;2024-02-26T00:26:00;100057.25;;;9.74;56.05
84904;BME280;75168;52.096;5.214;2024-02-26T00:28:25;100056.41;;;9.74;56.07
84904;BME280;75168;52.096;5.214;2024-02-26T00:30:52;100057.25;;;9.74;56.02
84904;BME280;75168;52.096;5.214;2024-02-26T00:33:21;100052.03;;;9.72;56.30
84904;BME280;75168;52.096;5.214;2024-02-26T00:35:46;100054.63;;;9.72;56.09
84904;BME280;75168;52.096;5.214;2024-02-26T00:38:12;100051.16;;;9.72;55.97
84904;BME280;75168;52.096;5.214;2024-02-26T00:40:37;100055.50;;;9.70;55.94
84904;BME280;75168;52.096;5.214;2024-02-26T00:43:03;100060.72;;;9.68;56.04
84904;BME280;75168;52.096;5.214;2024-02-26T00:45:29;100067.66;;;9.68;56.02
84904;BME280;75168;52.096;5.214;2024-02-26T00:47:54;100057.22;;;9.66;56.01
84904;BME280;75168;52.096;5.214;2024-02-26T00:50:21;100052.88;;;9.65;55.98
84904;BME280;75168;52.096;5.214;2024-02-26T00:52:46;100058.97;;;9.64;55.91
84904;BME280;75168;52.096;5.214;2024-02-26T00:55:12;100050.25;;;9.62;56.00
84904;BME280;75168;52.096;5.214;2024-02-26T00:57:37;100057.19;;;9.60;56.02
84904;BME280;75168;52.096;5.214;2024-02-26T01:00:03;100058.06;;;9.58;55.96
84904;BME280;75168;52.096;5.214;2024-02-26T01:02:29;100064.97;;;9.57;55.96
84904;BME280;75168;52.096;5.214;2024-02-26T01:04:55;100061.53;;;9.57;56.07
84904;BME280;75168;52.096;5.214;2024-02-26T01:07:20;100059.78;;;9.57;56.13
84904;BME280;75168;52.096;5.214;2024-02-26T01:09:46;100061.53;;;9.57;56.00
84904;BME280;75168;52.096;5.214;2024-02-26T01:12:12;100058.91;;;9.55;56.12
84904;BME280;75168;52.096;5.214;2024-02-26T01:14:37;100054.59;;;9.56;56.03
84904;BME280;75168;52.096;5.214;2024-02-26T01:17:03;100056.31;;;9.55;56.16
84904;BME280;75168;52.096;5.214;2024-02-26T01:19:29;100055.44;;;9.55;56.09
84904;BME280;75168;52.096;5.214;2024-02-26T01:21:54;100056.31;;;9.55;56.05
84904;BME280;75168;52.096;5.214;2024-02-26T01:24:20;100056.28;;;9.53;56.04
84904;BME280;75168;52.096;5.214;2024-02-26T01:26:48;100045.91;;;9.52;55.97
84904;BME280;75168;52.096;5.214;2024-02-26T01:29:14;100046.75;;;9.52;56.02
84904;BME280;75168;52.096;5.214;2024-02-26T01:31:39;100051.97;;;9.52;56.01
84904;BME280;75168;52.096;5.214;2024-02-26T01:34:05;100040.69;;;9.52;56.07
84904;BME280;75168;52.096;5.214;2024-02-26T01:36:30;100046.75;;;9.52;56.12
84904;BME280;75168;52.096;5.214;2024-02-26T01:38:56;100047.63;;;9.53;56.04
84904;BME280;75168;52.096;5.214;2024-02-26T01:41:21;100048.47;;;9.53;56.08
84904;BME280;75168;52.096;5.214;2024-02-26T01:43:47;100055.41;;;9.51;56.10
84904;BME280;75168;52.096;5.214;2024-02-26T01:46:14;100048.50;;;9.52;55.84
84904;BME280;75168;52.096;5.214;2024-02-26T01:48:44;100041.53;;;9.51;56.08
84904;BME280;75168;52.096;5.214;2024-02-26T01:51:12;100048.47;;;9.53;55.91
84904;BME280;75168;52.096;5.214;2024-02-26T01:53:39;100053.72;;;9.52;55.92
84904;BME280;75168;52.096;5.214;2024-02-26T01:56:05;100052.81;;;9.51;56.02
84904;BME280;75168;52.096;5.214;2024-02-26T01:58:31;100044.16;;;9.51;55.97
84904;BME280;75168;52.096;5.214;2024-02-26T02:00:58;100056.31;;;9.52;56.00
84904;BME280;75168;52.096;5.214;2024-02-26T02:03:24;100054.56;;;9.51;56.04
84904;BME280;75168;52.096;5.214;2024-02-26T02:05:50;100062.38;;;9.52;56.00
84904;BME280;75168;52.096;5.214;2024-02-26T02:08:18;100068.44;;;9.53;55.90
84904;BME280;75168;52.096;5.214;2024-02-26T02:10:45;100066.72;;;9.55;56.06
84904;BME280;75168;52.096;5.214;2024-02-26T02:13:13;100069.31;;;9.55;55.97
84904;BME280;75168;52.096;5.214;2024-02-26T02:15:39;100068.47;;;9.55;55.84
84904;BME280;75168;52.096;5.214;2024-02-26T02:18:05;100083.22;;;9.54;56.02
84904;BME280;75168;52.096;5.214;2024-02-26T02:20:35;100076.25;;;9.51;55.91
84904;BME280;75168;52.096;5.214;2024-02-26T02:23:01;100070.19;;;9.51;55.93
84904;BME280;75168;52.096;5.214;2024-02-26T02:25:27;100078.84;;;9.48;55.78
84904;BME280;75168;52.096;5.214;2024-02-26T02:27:56;100088.38;;;9.46;55.93
84904;BME280;75168;52.096;5.214;2024-02-26T02:30:25;100084.91;;;9.46;55.90
84904;BME280;75168;52.096;5.214;2024-02-26T02:32:52;100076.22;;;9.45;55.89
84904;BME280;75168;52.096;5.214;2024-02-26T02:35:17;100079.69;;;9.44;55.67
84904;BME280;75168;52.096;5.214;2024-02-26T02:37:43;100085.75;;;9.42;55.89
84904;BME280;75168;52.096;5.214;2024-02-26T02:40:08;100090.09;;;9.41;56.03
84904;BME280;75168;52.096;5.214;2024-02-26T02:42:34;100098.75;;;9.40;55.97
84904;BME280;75168;52.096;5.214;2024-02-26T02:44:59;100098.78;;;9.42;55.86
84904;BME280;75168;52.096;5.214;2024-02-26T02:47:25;100090.97;;;9.42;55.93
84904;BME280;75168;52.096;5.214;2024-02-26T02:49:50;100109.19;;;9.40;56.12
84904;BME280;75168;52.096;5.214;2024-02-26T02:52:16;100112.63;;;9.39;56.08
84904;BME280;75168;52.096;5.214;2024-02-26T02:54:44;100114.38;;;9.39;55.89
84904;BME280;75168;52.096;5.214;2024-02-26T02:57:12;100118.72;;;9.38;55.95
84904;BME280;75168;52.096;5.214;2024-02-26T02:59:37;100116.09;;;9.37;55.96
84904;BME280;75168;52.096;5.214;2024-02-26T03:02:03;100120.44;;;9.38;56.21
84904;BME280;75168;52.096;5.214;2024-02-26T03:04:31;100123.91;;;9.37;55.90
84904;BME280;75168;52.096;5.214;2024-02-26T03:06:57;100130.84;;;9.36;56.08
84904;BME280;75168;52.096;5.214;2024-02-26T03:09:23;100135.16;;;9.36;56.15
84904;BME280;75168;52.096;5.214;2024-02-26T03:11:49;100143.88;;;9.36;55.49
84904;BME280;75168;52.096;5.214;2024-02-26T03:14:14;100153.38;;;9.36;56.03
84904;BME280;75168;52.096;5.214;2024-02-26T03:16:40;100149.09;;;9.38;56.13
84904;BME280;75168;52.096;5.214;2024-02-26T03:19:05;100158.63;;;9.40;56.05
84904;BME280;75168;52.096;5.214;2024-02-26T03:21:31;100155.19;;;9.41;56.06
84904;BME280;75168;52.096;5.214;2024-02-26T03:23:56;100159.50;;;9.41;56.02
84904;BME280;75168;52.096;5.214;2024-02-26T03:26:22;100149.97;;;9.40;56.10
84904;BME280;75168;52.096;5.214;2024-02-26T03:28:48;100152.56;;;9.40;55.96
84904;BME280;75168;52.096;5.214;2024-02-26T03:31:14;100163.81;;;9.39;55.85
84904;BME280;75168;52.096;5.214;2024-02-26T03:33:40;100154.28;;;9.39;55.91
84904;BME280;75168;52.096;5.214;2024-02-26T03:36:05;100156.00;;;9.37;56.04
84904;BME280;75168;52.096;5.214;2024-02-26T03:38:32;100162.94;;;9.37;55.81
84904;BME280;75168;52.096;5.214;2024-02-26T03:40:58;100164.66;;;9.34;55.92
84904;BME280;75168;52.096;5.214;2024-02-26T03:43:24;100162.06;;;9.34;55.95
84904;BME280;75168;52.096;5.214;2024-02-26T03:45:49;100165.53;;;9.33;55.97
84904;BME280;75168;52.096;5.214;2024-02-26T03:48:15;100155.09;;;9.32;56.08
84904;BME280;75168;52.096;5.214;2024-02-26T03:50:40;100170.72;;;9.32;56.04
84904;BME280;75168;52.096;5.214;2024-02-26T03:53:05;100168.97;;;9.31;55.89
84904;BME280;75168;52.096;5.214;2024-02-26T03:55:31;100172.44;;;9.30;55.74
84904;BME280;75168;52.096;5.214;2024-02-26T03:57:56;100175.03;;;9.28;55.85
84904;BME280;75168;52.096;5.214;2024-02-26T04:00:22;100173.31;;;9.29;55.97
84904;BME280;75168;52.096;5.214;2024-02-26T04:02:48;100168.09;;;9.29;56.05
84904;BME280;75168;52.096;5.214;2024-02-26T04:05:13;100175.91;;;9.29;56.07
84904;BME280;75168;52.096;5.214;2024-02-26T04:07:40;100168.94;;;9.26;55.85
84904;BME280;75168;52.096;5.214;2024-02-26T04:10:15;100168.06;;;9.26;55.84
84904;BME280;75168;52.096;5.214;2024-02-26T04:12:41;100170.69;;;9.26;55.94
84904;BME280;75168;52.096;5.214;2024-02-26T04:15:10;100185.41;;;9.27;55.92
84904;BME280;75168;52.096;5.214;2024-02-26T04:17:37;100178.50;;;9.26;55.87
84904;BME280;75168;52.096;5.214;2024-02-26T04:20:07;100191.47;;;9.24;55.89
84904;BME280;75168;52.096;5.214;2024-02-26T04:22:32;100183.69;;;9.26;56.10
84904;BME280;75168;52.096;5.214;2024-02-26T04:24:58;100188.03;;;9.25;55.85
84904;BME280;75168;52.096;5.214;2024-02-26T04:27:23;100191.50;;;9.26;56.00
84904;BME280;75168;52.096;5.214;2024-02-26T04:29:49;100186.28;;;9.24;55.85
84904;BME280;75168;52.096;5.214;2024-02-26T04:32:14;100190.63;;;9.24;55.79
84904;BME280;75168;52.096;5.214;2024-02-26T04:34:40;100187.13;;;9.23;55.81
84904;BME280;75168;52.096;5.214;2024-02-26T04:37:07;100195.84;;;9.25;55.95
84904;BME280;75168;52.096;5.214;2024-02-26T04:39:32;100193.25;;;9.25;55.93
84904;BME280;75168;52.096;5.214;2024-02-26T04:41:58;100191.47;;;9.24;56.02
84904;BME280;75168;52.096;5.214;2024-02-26T04:44:23;100190.63;;;9.24;55.69
84904;BME280;75168;52.096;5.214;2024-02-26T04:46:48;100192.31;;;9.23;55.81
84904;BME280;75168;52.096;5.214;2024-02-26T04:49:14;100188.00;;;9.21;55.83
84904;BME280;75168;52.096;5.214;2024-02-26T04:51:39;100194.94;;;9.22;55.78
84904;BME280;75168;52.096;5.214;2024-02-26T04:54:05;100201.88;;;9.23;55.94
84904;BME280;75168;52.096;5.214;2024-02-26T04:56:30;100196.66;;;9.21;55.84
84904;BME280;75168;52.096;5.214;2024-02-26T04:58:56;100201.88;;;9.23;56.05
84904;BME280;75168;52.096;5.214;2024-02-26T05:01:21;100210.53;;;9.23;56.16
84904;BME280;75168;52.096;5.214;2024-02-26T05:03:47;100206.22;;;9.22;55.96
84904;BME280;75168;52.096;5.214;2024-02-26T05:06:13;100209.66;;;9.21;56.03
84904;BME280;75168;52.096;5.214;2024-02-26T05:08:38;100220.97;;;9.22;55.97
84904;BME280;75168;52.096;5.214;2024-02-26T05:11:04;100225.28;;;9.21;56.25
84904;BME280;75168;52.096;5.214;2024-02-26T05:13:30;100220.06;;;9.20;56.16
84904;BME280;75168;52.096;5.214;2024-02-26T05:15:55;100220.06;;;9.21;56.11
84904;BME280;75168;52.096;5.214;2024-02-26T05:18:21;100224.41;;;9.21;56.20
84904;BME280;75168;52.096;5.214;2024-02-26T05:20:47;100235.66;;;9.20;56.13
84904;BME280;75168;52.096;5.214;2024-02-26T05:23:12;100225.25;;;9.20;56.32
84904;BME280;75168;52.096;5.214;2024-02-26T05:25:38;100232.22;;;9.19;55.97
84904;BME280;75168;52.096;5.214;2024-02-26T05:28:04;100221.81;;;9.19;56.47
84904;BME280;75168;52.096;5.214;2024-02-26T05:30:29;100220.06;;;9.17;56.29
84904;BME280;75168;52.096;5.214;2024-02-26T05:32:55;100222.66;;;9.17;56.43
84904;BME280;75168;52.096;5.214;2024-02-26T05:35:20;100234.78;;;9.16;56.27
84904;BME280;75168;52.096;5.214;2024-02-26T05:37:46;100242.59;;;9.16;56.35
84904;BME280;75168;52.096;5.214;2024-02-26T05:40:15;100245.19;;;9.14;56.42
84904;BME280;75168;52.096;5.214;2024-02-26T05:42:40;100233.91;;;9.14;56.51
84904;BME280;75168;52.096;5.214;2024-02-26T05:45:06;100234.78;;;9.14;56.51
84904;BME280;75168;52.096;5.214;2024-02-26T05:47:35;100239.09;;;9.14;56.63
84904;BME280;75168;52.096;5.214;2024-02-26T05:50:01;100246.88;;;9.12;56.51
84904;BME280;75168;52.096;5.214;2024-02-26T05:52:27;100249.50;;;9.14;56.67
84904;BME280;75168;52.096;5.214;2024-02-26T05:54:54;100240.00;;;9.14;56.62
84904;BME280;75168;52.096;5.214;2024-02-26T05:57:20;100256.44;;;9.13;56.56
84904;BME280;75168;52.096;5.214;2024-02-26T05:59:45;100253.84;;;9.13;56.61
84904;BME280;75168;52.096;5.214;2024-02-26T06:02:11;100263.38;;;9.11;56.60
84904;BME280;75168;52.096;5.214;2024-02-26T06:04:37;100265.09;;;9.09;56.64
84904;BME280;75168;52.096;5.214;2024-02-26T06:07:02;100269.41;;;9.09;56.66
84904;BME280;75168;52.096;5.214;2024-02-26T06:09:28;100265.94;;;9.08;56.65
84904;BME280;75168;52.096;5.214;2024-02-26T06:11:53;100259.00;;;9.07;56.73
84904;BME280;75168;52.096;5.214;2024-02-26T06:14:19;100269.41;;;9.09;56.78
84904;BME280;75168;52.096;5.214;2024-02-26T06:16:46;100273.78;;;9.11;56.64
84904;BME280;75168;52.096;5.214;2024-02-26T06:19:13;100275.50;;;9.09;56.74
84904;BME280;75168;52.096;5.214;2024-02-26T06:21:39;100287.63;;;9.10;56.87
84904;BME280;75168;52.096;5.214;2024-02-26T06:24:04;100286.78;;;9.10;56.95
84904;BME280;75168;52.096;5.214;2024-02-26T06:26:30;100288.50;;;9.09;56.78
84904;BME280;75168;52.096;5.214;2024-02-26T06:28:56;100292.81;;;9.09;56.90
84904;BME280;75168;52.096;5.214;2024-02-26T06:31:22;100289.34;;;9.08;56.88
84904;BME280;75168;52.096;5.214;2024-02-26T06:33:48;100291.97;;;9.08;57.12
84904;BME280;75168;52.096;5.214;2024-02-26T06:36:15;100304.09;;;9.08;57.05
84904;BME280;75168;52.096;5.214;2024-02-26T06:38:44;100304.09;;;9.08;56.88
84904;BME280;75168;52.096;5.214;2024-02-26T06:41:10;100302.38;;;9.10;57.06
84904;BME280;75168;52.096;5.214;2024-02-26T06:43:39;100307.59;;;9.10;56.97
84904;BME280;75168;52.096;5.214;2024-02-26T06:46:05;100312.78;;;9.10;57.20
84904;BME280;75168;52.096;5.214;2024-02-26T06:48:31;100320.56;;;9.08;57.13
84904;BME280;75168;52.096;5.214;2024-02-26T06:50:56;100324.03;;;9.09;57.31
84904;BME280;75168;52.096;5.214;2024-02-26T06:53:22;100333.63;;;9.11;57.26
84904;BME280;75168;52.096;5.214;2024-02-26T06:55:47;100328.41;;;9.11;57.27
84904;BME280;75168;52.096;5.214;2024-02-26T06:58:15;100328.41;;;9.11;57.33
84904;BME280;75168;52.096;5.214;2024-02-26T07:00:44;100330.13;;;9.09;57.30
84904;BME280;75168;52.096;5.214;2024-02-26T07:03:11;100324.91;;;9.08;57.39
84904;BME280;75168;52.096;5.214;2024-02-26T07:05:39;100335.34;;;9.09;57.54
84904;BME280;75168;52.096;5.214;2024-02-26T07:08:04;100337.06;;;9.09;57.52
84904;BME280;75168;52.096;5.214;2024-02-26T07:10:30;100344.00;;;9.10;57.35
84904;BME280;75168;52.096;5.214;2024-02-26T07:12:55;100350.06;;;9.09;57.27
84904;BME280;75168;52.096;5.214;2024-02-26T07:15:21;100352.66;;;9.09;57.40
84904;BME280;75168;52.096;5.214;2024-02-26T07:17:49;100357.88;;;9.07;57.66
84904;BME280;75168;52.096;5.214;2024-02-26T07:20:15;100349.16;;;9.05;57.71
84904;BME280;75168;52.096;5.214;2024-02-26T07:22:40;100367.38;;;9.04;57.82
84904;BME280;75168;52.096;5.214;2024-02-26T07:25:08;100367.38;;;9.04;57.78
84904;BME280;75168;52.096;5.214;2024-02-26T07:27:34;100360.38;;;9.01;57.79
84904;BME280;75168;52.096;5.214;2024-02-26T07:29:59;100346.47;;;8.98;57.79
84904;BME280;75168;52.096;5.214;2024-02-26T07:32:25;100365.53;;;8.98;57.98
84904;BME280;75168;52.096;5.214;2024-02-26T07:34:50;100367.25;;;8.96;58.02
84904;BME280;75168;52.096;5.214;2024-02-26T07:37:16;100368.13;;;8.96;57.91
84904;BME280;75168;52.096;5.214;2024-02-26T07:39:42;100375.06;;;8.96;58.13
84904;BME280;75168;52.096;5.214;2024-02-26T07:42:08;100381.13;;;8.96;58.26
84904;BME280;75168;52.096;5.214;2024-02-26T07:44:36;100383.75;;;8.98;58.04
84904;BME280;75168;52.096;5.214;2024-02-26T07:47:01;100382.06;;;8.99;58.34
84904;BME280;75168;52.096;5.214;2024-02-26T07:49:28;100388.13;;;9.01;58.34
84904;BME280;75168;52.096;5.214;2024-02-26T07:51:53;100385.53;;;9.01;58.35
84904;BME280;75168;52.096;5.214;2024-02-26T07:54:22;100396.81;;;9.01;58.30
84904;BME280;75168;52.096;5.214;2024-02-26T07:56:50;100405.47;;;9.02;58.26
84904;BME280;75168;52.096;5.214;2024-02-26T07:59:15;100407.22;;;9.01;58.49
84904;BME280;75168;52.096;5.214;2024-02-26T08:01:44;100406.38;;;9.02;58.52
84904;BME280;75168;52.096;5.214;2024-02-26T08:04:14;100420.28;;;9.04;58.51
84904;BME280;75168;52.096;5.214;2024-02-26T08:06:39;100422.00;;;9.04;58.35
84904;BME280;75168;52.096;5.214;2024-02-26T08:09:05;100426.34;;;9.05;58.79
84904;BME280;75168;52.096;5.214;2024-02-26T08:11:38;100428.94;;;9.05;58.75
84904;BME280;75168;52.096;5.214;2024-02-26T08:14:07;100428.06;;;9.03;58.70
84904;BME280;75168;52.096;5.214;2024-02-26T08:16:35;100442.78;;;9.02;58.62
84904;BME280;75168;52.096;5.214;2024-02-26T08:19:35;100440.16;;;9.01;58.78
84904;BME280;75168;52.096;5.214;2024-02-26T08:22:08;100438.41;;;9.00;58.88
84904;BME280;75168;52.096;5.214;2024-02-26T08:24:44;100433.16;;;8.96;58.75
84904;BME280;75168;52.096;5.214;2024-02-26T08:27:18;100444.44;;;8.95;58.43
84904;BME280;75168;52.096;5.214;2024-02-26T08:29:43;100421.84;;;8.91;58.70
84904;BME280;75168;52.096;5.214;2024-02-26T08:32:15;100449.53;;;8.89;58.97
84904;BME280;75168;52.096;5.214;2024-02-26T08:34:43;100459.09;;;8.90;59.11
84904;BME280;75168;52.096;5.214;2024-02-26T08:37:19;100450.41;;;8.88;58.90
84904;BME280;75168;52.096;5.214;2024-02-26T08:39:45;100455.66;;;8.91;59.06
84904;BME280;75168;52.096;5.214;2024-02-26T08:42:11;100456.50;;;8.90;59.19
84904;BME280;75168;52.096;5.214;2024-02-26T08:44:53;100466.06;;;8.93;59.28
84904;BME280;75168;52.096;5.214;2024-02-26T08:47:20;100453.97;;;8.95;59.21
84904;BME280;75168;52.096;5.214;2024-02-26T08:49:45;100466.97;;;8.95;59.19
84904;BME280;75168;52.096;5.214;2024-02-26T08:52:11;100473.94;;;8.98;59.05
84904;BME280;75168;52.096;5.214;2024-02-26T08:54:39;100476.56;;;8.99;59.09
84904;BME280;75168;52.096;5.214;2024-02-26T08:57:05;100488.72;;;9.02;59.04
84904;BME280;75168;52.096;5.214;2024-02-26T08:59:31;100485.31;;;9.04;59.04
84904;BME280;75168;52.096;5.214;2024-02-26T09:01:57;100481.84;;;9.05;59.06
84904;BME280;75168;52.096;5.214;2024-02-26T09:04:22;100488.81;;;9.08;58.93
84904;BME280;75168;52.096;5.214;2024-02-26T09:06:48;100492.25;;;9.07;58.81
84904;BME280;75168;52.096;5.214;2024-02-26T09:09:14;100485.34;;;9.06;58.88
84904;BME280;75168;52.096;5.214;2024-02-26T09:11:40;100492.25;;;9.04;58.83
84904;BME280;75168;52.096;5.214;2024-02-26T09:14:05;100487.88;;;9.03;58.81
84904;BME280;75168;52.096;5.214;2024-02-26T09:16:34;100500.03;;;9.02;58.90
84904;BME280;75168;52.096;5.214;2024-02-26T09:19:00;100504.34;;;9.02;58.69
84904;BME280;75168;52.096;5.214;2024-02-26T09:21:25;100503.47;;;9.01;59.05
84904;BME280;75168;52.096;5.214;2024-02-26T09:23:52;100518.25;;;9.02;59.02
84904;BME280;75168;52.096;5.214;2024-02-26T09:26:18;100513.88;;;9.01;58.86
84904;BME280;75168;52.096;5.214;2024-02-26T09:28:44;100512.13;;;9.02;58.92
84904;BME280;75168;52.096;5.214;2024-02-26T09:31:10;100511.25;;;9.00;58.88
84904;BME280;75168;52.096;5.214;2024-02-26T09:33:36;100508.66;;;9.00;59.18
84904;BME280;75168;52.096;5.214;2024-02-26T09:45:26;100531.03;;;8.88;59.13
84904;BME280;75168;52.096;5.214;2024-02-26T09:47:55;100531.88;;;8.87;59.17
84904;BME280;75168;52.096;5.214;2024-02-26T09:50:21;100547.50;;;8.87;59.29
84904;BME280;75168;52.096;5.214;2024-02-26T09:52:53;100544.03;;;8.87;59.34
84904;BME280;75168;52.096;5.214;2024-02-26T09:55:19;100555.34;;;8.90;59.51
84904;BME280;75168;52.096;5.214;2024-02-26T09:57:46;100548.41;;;8.91;59.43
84904;BME280;75168;52.096;5.214;2024-02-26T10:00:18;100557.13;;;8.94;59.58
84904;BME280;75168;52.096;5.214;2024-02-26T10:02:53;100555.41;;;8.93;59.60
84904;BME280;75168;52.096;5.214;2024-02-26T10:05:22;100564.97;;;8.96;59.51
84904;BME280;75168;52.096;5.214;2024-02-26T10:07:49;100565.00;;;8.98;59.61
84904;BME280;75168;52.096;5.214;2024-02-26T10:10:18;100572.78;;;8.96;59.67
84904;BME280;75168;52.096;5.214;2024-02-26T10:12:44;100578.84;;;8.96;59.58
84904;BME280;75168;52.096;5.214;2024-02-26T10:15:10;100572.75;;;8.94;59.47
84904;BME280;75168;52.096;5.214;2024-02-26T10:17:36;100576.22;;;8.93;59.72
84904;BME280;75168;52.096;5.214;2024-02-26T10:20:14;100579.69;;;8.94;59.85
84904;BME280;75168;52.096;5.214;2024-02-26T10:22:45;100579.66;;;8.92;59.86
84904;BME280;75168;52.096;5.214;2024-02-26T10:25:10;100590.09;;;8.94;60.05
84904;BME280;75168;52.096;5.214;2024-02-26T10:27:36;100596.19;;;8.96;60.14
84904;BME280;75168;52.096;5.214;2024-02-26T10:30:03;100593.56;;;8.96;60.20
84904;BME280;75168;52.096;5.214;2024-02-26T10:36:26;100608.34;;;8.97;60.21
84904;BME280;75168;52.096;5.214;2024-02-26T10:38:56;100616.19;;;8.99;60.17
84904;BME280;75168;52.096;5.214;2024-02-26T10:41:24;100611.88;;;9.01;60.20
84904;BME280;75168;52.096;5.214;2024-02-26T10:43:52;100622.31;;;9.02;60.34
84904;BME280;75168;52.096;5.214;2024-02-26T10:46:18;100624.94;;;9.05;60.47
84904;BME280;75168;52.096;5.214;2024-02-26T10:48:50;100624.19;;;9.11;60.56
84904;BME280;75168;52.096;5.214;2024-02-26T10:51:21;100631.16;;;9.15;60.24
84904;BME280;75168;52.096;5.214;2024-02-26T10:53:51;100636.41;;;9.17;60.11
84904;BME280;75168;52.096;5.214;2024-02-26T10:56:24;100645.94;;;9.18;60.13
84904;BME280;75168;52.096;5.214;2024-02-26T10:58:51;100645.97;;;9.19;60.26
84904;BME280;75168;52.096;5.214;2024-02-26T11:01:18;100648.56;;;9.19;59.85
84904;BME280;75168;52.096;5.214;2024-02-26T11:03:45;100655.50;;;9.19;60.22
84904;BME280;75168;52.096;5.214;2024-02-26T11:06:12;100655.53;;;9.20;60.43
84904;BME280;75168;52.096;5.214;2024-02-26T11:08:44;100659.91;;;9.23;60.50
84904;BME280;75168;52.096;5.214;2024-02-26T11:11:10;100662.56;;;9.26;60.14
84904;BME280;75168;52.096;5.214;2024-02-26T11:13:40;100669.50;;;9.27;60.30
84904;BME280;75168;52.096;5.214;2024-02-26T11:16:11;100666.06;;;9.29;60.56
84904;BME280;75168;52.096;5.214;2024-02-26T11:18:47;100673.03;;;9.32;60.58
84904;BME280;75168;52.096;5.214;2024-02-26T11:21:16;100665.25;;;9.33;60.29
84904;BME280;75168;52.096;5.214;2024-02-26T11:23:48;100671.38;;;9.34;60.18
84904;BME280;75168;52.096;5.214;2024-02-26T11:26:15;100671.38;;;9.34;60.18
84904;BME280;75168;52.096;5.214;2024-02-26T11:28:49;100682.63;;;9.34;60.21
84904;BME280;75168;52.096;5.214;2024-02-26T11:31:19;100681.78;;;9.34;60.66
84904;BME280;75168;52.096;5.214;2024-02-26T11:33:53;100681.78;;;9.36;60.28
84904;BME280;75168;52.096;5.214;2024-02-26T11:36:25;100683.47;;;9.33;60.70
84904;BME280;75168;52.096;5.214;2024-02-26T11:38:55;100677.47;;;9.36;60.39
84904;BME280;75168;52.096;5.214;2024-02-26T11:41:20;100676.63;;;9.39;60.47
84904;BME280;75168;52.096;5.214;2024-02-26T11:46:32;100682.78;;;9.44;60.30
84904;BME280;75168;52.096;5.214;2024-02-26T11:49:02;100694.09;;;9.47;60.50
84904;BME280;75168;52.096;5.214;2024-02-26T11:51:33;100699.31;;;9.47;60.17
84904;BME280;75168;52.096;5.214;2024-02-26T11:54:06;100712.34;;;9.49;60.28
84904;BME280;75168;52.096;5.214;2024-02-26T11:56:40;100702.81;;;9.49;60.43
84904;BME280;75168;52.096;5.214;2024-02-26T11:59:19;100709.81;;;9.53;60.16
84904;BME280;75168;52.096;5.214;2024-02-26T12:05:15;100716.88;;;9.62;60.10
84904;BME280;75168;52.096;5.214;2024-02-26T12:07:53;100722.97;;;9.61;60.01
84904;BME280;75168;52.096;5.214;2024-02-26T12:10:51;100722.09;;;9.61;59.92
84904;BME280;75168;52.096;5.214;2024-02-26T12:13:17;100719.47;;;9.62;60.12
84904;BME280;75168;52.096;5.214;2024-02-26T12:16:05;100728.16;;;9.61;60.07
84904;BME280;75168;52.096;5.214;2024-02-26T12:18:31;100726.47;;;9.65;60.00
84904;BME280;75168;52.096;5.214;2024-02-26T12:21:00;100722.13;;;9.65;60.29
84904;BME280;75168;52.096;5.214;2024-02-26T12:23:31;100738.69;;;9.69;60.08
84904;BME280;75168;52.096;5.214;2024-02-26T12:26:00;100736.94;;;9.69;60.21
84904;BME280;75168;52.096;5.214;2024-02-26T12:28:29;100743.06;;;9.71;60.11
84904;BME280;75168;52.096;5.214;2024-02-26T12:30:55;100740.50;;;9.75;60.13
84904;BME280;75168;52.096;5.214;2024-02-26T12:33:21;100740.53;;;9.78;59.80
84904;BME280;75168;52.096;5.214;2024-02-26T12:35:47;100740.56;;;9.79;59.91
84904;BME280;75168;52.096;5.214;2024-02-26T12:38:16;100751.03;;;9.81;60.01
84904;BME280;75168;52.096;5.214;2024-02-26T12:40:41;100747.50;;;9.80;59.77
84904;BME280;75168;52.096;5.214;2024-02-26T12:43:10;100753.63;;;9.81;59.68
84904;BME280;75168;52.096;5.214;2024-02-26T12:45:44;100746.66;;;9.81;59.57
84904;BME280;75168;52.096;5.214;2024-02-26T12:48:13;100753.63;;;9.81;59.63
84904;BME280;75168;52.096;5.214;2024-02-26T12:50:38;100767.50;;;9.81;59.60
84904;BME280;75168;52.096;5.214;2024-02-26T12:53:05;100764.94;;;9.83;59.53
84904;BME280;75168;52.096;5.214;2024-02-26T12:55:31;100785.81;;;9.84;59.51
84904;BME280;75168;52.096;5.214;2024-02-26T12:58:00;100775.41;;;9.86;59.40
84904;BME280;75168;52.096;5.214;2024-02-26T13:00:27;100767.59;;;9.87;59.71
84904;BME280;75168;52.096;5.214;2024-02-26T13:02:54;100779.81;;;9.90;59.36
84904;BME280;75168;52.096;5.214;2024-02-26T13:05:21;100782.41;;;9.90;59.46
84904;BME280;75168;52.096;5.214;2024-02-26T13:07:50;100785.84;;;9.89;59.17
84904;BME280;75168;52.096;5.214;2024-02-26T13:10:20;100784.97;;;9.88;59.20
84904;BME280;75168;52.096;5.214;2024-02-26T13:12:48;100791.13;;;9.92;59.31
84904;BME280;75168;52.096;5.214;2024-02-26T13:15:19;100789.41;;;9.94;59.09
84904;BME280;75168;52.096;5.214;2024-02-26T13:17:48;100800.72;;;9.95;59.12
84904;BME280;75168;52.096;5.214;2024-02-26T13:20:25;100804.16;;;9.94;58.93